地図

経路データ

SID SEASON NUMBER BASIN SUBBASIN NAME ISO_TIME NATURE LAT LON WMO_WIND WMO_PRES WMO_AGENCY TRACK_TYPE DIST2LAND LANDFALL IFLAG USA_AGENCY USA_ATCF_ID USA_LAT USA_LON USA_RECORD USA_STATUS USA_WIND USA_PRES USA_SSHS USA_R34_NE USA_R34_SE USA_R34_SW USA_R34_NW USA_R50_NE USA_R50_SE USA_R50_SW USA_R50_NW USA_R64_NE USA_R64_SE USA_R64_SW USA_R64_NW USA_POCI USA_ROCI USA_RMW USA_EYE TOKYO_LAT TOKYO_LON TOKYO_GRADE TOKYO_WIND TOKYO_PRES TOKYO_R50_DIR TOKYO_R50_LONG TOKYO_R50_SHORT TOKYO_R30_DIR TOKYO_R30_LONG TOKYO_R30_SHORT TOKYO_LAND CMA_LAT CMA_LON CMA_CAT CMA_WIND CMA_PRES HKO_LAT HKO_LON HKO_CAT HKO_WIND HKO_PRES NEWDELHI_LAT NEWDELHI_LON NEWDELHI_GRADE NEWDELHI_WIND NEWDELHI_PRES NEWDELHI_CI NEWDELHI_DP NEWDELHI_POCI REUNION_LAT REUNION_LON REUNION_TYPE REUNION_WIND REUNION_PRES REUNION_TNUM REUNION_CI REUNION_RMW REUNION_R34_NE REUNION_R34_SE REUNION_R34_SW REUNION_R34_NW REUNION_R50_NE REUNION_R50_SE REUNION_R50_SW REUNION_R50_NW REUNION_R64_NE REUNION_R64_SE REUNION_R64_SW REUNION_R64_NW BOM_LAT BOM_LON BOM_TYPE BOM_WIND BOM_PRES BOM_TNUM BOM_CI BOM_RMW BOM_R34_NE BOM_R34_SE BOM_R34_SW BOM_R34_NW BOM_R50_NE BOM_R50_SE BOM_R50_SW BOM_R50_NW BOM_R64_NE BOM_R64_SE BOM_R64_SW BOM_R64_NW BOM_ROCI BOM_POCI BOM_EYE BOM_POS_METHOD BOM_PRES_METHOD NADI_LAT NADI_LON NADI_CAT NADI_WIND NADI_PRES WELLINGTON_LAT WELLINGTON_LON WELLINGTON_WIND WELLINGTON_PRES DS824_LAT DS824_LON DS824_STAGE DS824_WIND DS824_PRES TD9636_LAT TD9636_LON TD9636_STAGE TD9636_WIND TD9636_PRES TD9635_LAT TD9635_LON TD9635_WIND TD9635_PRES TD9635_ROCI NEUMANN_LAT NEUMANN_LON NEUMANN_CLASS NEUMANN_WIND NEUMANN_PRES MLC_LAT MLC_LON MLC_CLASS MLC_WIND MLC_PRES USA_GUST BOM_GUST BOM_GUST_PER REUNION_GUST REUNION_GUST_PER USA_SEAHGT USA_SEARAD_NE USA_SEARAD_SE USA_SEARAD_SW USA_SEARAD_NW STORM_SPEED STORM_DIR
1886224N16082 1886 23 NI BB NOT_NAMED 1886-08-12 00:00:00 TS 15.9000 82.3000 main 70 70 _________O____ -1 15.9000 82.3000 TC 34 0 0
1886224N16082 1886 23 NI BB NOT_NAMED 1886-08-12 03:00:00 TS 15.9000 82.3000 main 70 70 _________PO___ -1 15.9000 82.3000 TC 36 15.9000 82.3000 2 0 0
1886224N16082 1886 23 NI BB NOT_NAMED 1886-08-12 06:00:00 TS 15.9000 82.3000 main 70 70 _________OP___ -1 15.9000 82.3000 TC 39 15.9000 82.3000 2 0 0
1886224N16082 1886 23 NI BB NOT_NAMED 1886-08-12 09:00:00 TS 15.9000 82.3000 main 70 70 _________PP___ -1 15.9000 82.3000 TC 42 15.9000 82.3000 2 0 0
1886224N16082 1886 23 NI BB NOT_NAMED 1886-08-12 12:00:00 TS 15.9000 82.3000 main 70 70 _________OP___ -1 15.9000 82.3000 TC 45 15.9000 82.3000 2 0 0
1886224N16082 1886 23 NI BB NOT_NAMED 1886-08-12 15:00:00 TS 15.9000 82.3000 main 70 70 _________PO___ -1 15.9000 82.3000 TC 45 15.9000 82.3000 3 0 0
1886224N16082 1886 23 NI BB NOT_NAMED 1886-08-12 18:00:00 TS 15.9000 82.3000 main 70 70 _________OP___ -1 15.9000 82.3000 TC 45 15.9000 82.3000 3 0 0
1886224N16082 1886 23 NI BB NOT_NAMED 1886-08-12 21:00:00 TS 15.9000 82.3000 main 70 70 _________PP___ -1 15.9000 82.3000 TC 45 15.9000 82.3000 3 0 0
1886224N16082 1886 23 NI BB NOT_NAMED 1886-08-13 00:00:00 TS 15.9000 82.3000 main 70 70 _________OP___ -1 15.9000 82.3000 TC 45 15.9000 82.3000 3 0 0
1886224N16082 1886 23 NI BB NOT_NAMED 1886-08-13 03:00:00 TS 15.9000 82.3000 main 70 70 _________PO___ -1 15.9000 82.3000 TC 45 15.9000 82.3000 3 0 0
1886224N16082 1886 23 NI BB NOT_NAMED 1886-08-13 06:00:00 TS 15.9000 82.3000 main 70 70 _________OP___ -1 15.9000 82.3000 TC 45 15.9000 82.3000 3 0 0
1886224N16082 1886 23 NI BB NOT_NAMED 1886-08-13 09:00:00 TS 15.9000 82.3000 main 70 70 _________PP___ -1 15.9000 82.3000 TC 45 15.9000 82.3000 3 0 0
1886224N16082 1886 23 NI BB NOT_NAMED 1886-08-13 12:00:00 TS 15.9000 82.3000 main 70 70 _________OP___ -1 15.9000 82.3000 TC 45 15.9000 82.3000 3 0 0
1886224N16082 1886 23 NI BB NOT_NAMED 1886-08-13 15:00:00 TS 15.9000 82.3000 main 70 70 _________PO___ -1 15.9000 82.3000 TC 45 15.9000 82.3000 3 0 239
1886224N16082 1886 23 NI BB NOT_NAMED 1886-08-13 18:00:00 TS 15.8796 82.2697 main 70 64 _________OP___ -1 15.9000 82.3000 TC 45 15.8592 82.2394 3 1 234
1886224N16082 1886 23 NI BB NOT_NAMED 1886-08-13 21:00:00 TS 15.8435 82.2141 main 74 64 _________PP___ -1 15.8624 82.2402 TC 45 15.8246 82.1881 3 0 0
1886224N16082 1886 23 NI BB NOT_NAMED 1886-08-14 00:00:00 TS 15.8639 82.2464 main 64 64 _________OP___ -1 15.9000 82.3000 TC 45 15.8277 82.1928 3 3 57
1886224N16082 1886 23 NI BB NOT_NAMED 1886-08-14 03:00:00 TS 16.0063 82.4736 main 70 59 _________PO___ -1 16.1127 82.6473 TC 45 15.9000 82.3000 3 7 57
1886224N16082 1886 23 NI BB NOT_NAMED 1886-08-14 06:00:00 TS 16.2393 82.8374 main 69 69 _________OP___ -1 16.4000 83.1000 TC 45 16.0786 82.5748 3 9 56
1886224N16082 1886 23 NI BB NOT_NAMED 1886-08-14 09:00:00 TS 16.4878 83.2084 main 91 91 _________PP___ -1 16.6499 83.4651 TC 45 16.3257 82.9517 3 9 54
1886224N16082 1886 23 NI BB NOT_NAMED 1886-08-14 12:00:00 TS 16.7549 83.5890 main 99 94 _________OP___ -1 16.9000 83.8000 TC 45 16.6099 83.3779 3 9 53
1886224N16082 1886 23 NI BB NOT_NAMED 1886-08-14 15:00:00 TS 17.0249 83.9501 main 107 100 _________PO___ -1 17.1499 84.1001 TC 45 16.9000 83.8000 3 9 51
1886224N16082 1886 23 NI BB NOT_NAMED 1886-08-14 18:00:00 TS 17.2954 84.2959 main 107 94 _________OP___ -1 17.4000 84.4000 TC 45 17.1907 84.1918 3 9 51
1886224N16082 1886 23 NI BB NOT_NAMED 1886-08-14 21:00:00 TS 17.5814 84.6783 main 100 99 _________PP___ -1 17.6877 84.7948 TC 45 17.4752 84.5619 3 8 52
1886224N16082 1886 23 NI BB NOT_NAMED 1886-08-15 00:00:00 TS 17.8110 84.9881 main 107 99 _________OP___ -1 17.9000 85.1000 TC 45 17.7220 84.8761 3 5 52
1886224N16082 1886 23 NI BB NOT_NAMED 1886-08-15 03:00:00 TS 17.9187 85.1263 main 107 107 _________PO___ -1 17.9374 85.1526 TC 45 17.9000 85.1000 3 2 51
1886224N16082 1886 23 NI BB NOT_NAMED 1886-08-15 06:00:00 TS 17.9358 85.1470 main 107 107 _________OP___ -1 17.9000 85.1000 TC 45 17.9715 85.1940 3 0 0
1886224N16082 1886 23 NI BB NOT_NAMED 1886-08-15 09:00:00 TS 17.9373 85.1490 main 107 107 _________PP___ -1 17.9000 85.1000 TC 45 17.9746 85.1981 3 0 0
1886224N16082 1886 23 NI BB NOT_NAMED 1886-08-15 12:00:00 TS 17.9202 85.1266 main 107 107 _________OP___ -1 17.9000 85.1000 TC 45 17.9404 85.1531 3 1 228
1886224N16082 1886 23 NI BB NOT_NAMED 1886-08-15 15:00:00 TS 17.9000 85.1000 main 107 107 _________PO___ -1 17.9000 85.1000 TC 45 17.9000 85.1000 3 0 235
1886224N16082 1886 23 NI BB NOT_NAMED 1886-08-15 18:00:00 TS 17.8878 85.0899 main 107 107 _________OP___ -1 17.9000 85.1000 TC 45 17.8756 85.0798 3 0 221
1886224N16082 1886 23 NI BB NOT_NAMED 1886-08-15 21:00:00 TS 17.8700 85.0738 main 107 107 _________PP___ -1 17.8850 85.0850 TC 45 17.8549 85.0626 3 0 0
1886224N16082 1886 23 NI BB NOT_NAMED 1886-08-16 00:00:00 TS 17.8784 85.0821 main 107 107 _________OP___ -1 17.9000 85.1000 TC 45 17.8568 85.0642 3 1 43
1886224N16082 1886 23 NI BB NOT_NAMED 1886-08-16 03:00:00 TS 17.9350 85.1388 main 107 107 _________PO___ -1 17.9700 85.1775 TC 45 17.9000 85.1000 3 2 42
1886224N16082 1886 23 NI BB NOT_NAMED 1886-08-16 06:00:00 TS 18.0535 85.2445 main 99 99 _________OP___ -1 18.1000 85.3000 TC 45 18.0069 85.1890 3 4 39
1886224N16082 1886 23 NI BB NOT_NAMED 1886-08-16 09:00:00 TS 18.2200 85.3774 main 107 101 _________PP___ -1 18.2850 85.4425 TC 45 18.1551 85.3123 3 5 37
1886224N16082 1886 23 NI BB NOT_NAMED 1886-08-16 12:00:00 TS 18.4128 85.5273 main 104 104 _________OP___ -1 18.5000 85.6000 TC 45 18.3257 85.4546 3 5 36
1886224N16082 1886 23 NI BB NOT_NAMED 1886-08-16 15:00:00 TS 18.6075 85.6787 main 113 98 _________PO___ -1 18.7150 85.7575 TC 45 18.5000 85.6000 3 5 37
1886224N16082 1886 23 NI BB NOT_NAMED 1886-08-16 18:00:00 TS 18.7791 85.8226 main 98 94 _________OP___ -1 18.9000 85.9000 TC 45 18.6582 85.7452 3 4 40
1886224N16082 1886 23 NI BB NOT_NAMED 1886-08-16 21:00:00 TS 18.9150 85.9549 main 100 91 _________PP___ -1 19.0150 86.0225 TC 45 18.8151 85.8874 3 3 41
1886224N16082 1886 23 NI BB NOT_NAMED 1886-08-17 00:00:00 TS 19.0322 86.0554 main 94 84 _________OP___ -1 19.1000 86.1000 TC 45 18.9644 86.0108 3 3 31
1886224N16082 1886 23 NI BB NOT_NAMED 1886-08-17 03:00:00 TS 19.1500 86.1075 main 74 64 _________PO___ -1 19.2000 86.1150 TC 45 19.1000 86.1000 3 2 13
1886224N16082 1886 23 NI BB NOT_NAMED 1886-08-17 06:00:00 TS 19.2572 86.1180 main 64 54 _________OP___ -1 19.3000 86.1000 TC 45 19.2143 86.1361 3 2 0
1886224N16082 1886 23 NI BB NOT_NAMED 1886-08-17 09:00:00 TS 19.3575 86.1188 main 54 54 _________PP___ -1 19.4000 86.1000 TC 45 19.3149 86.1377 3 2 354
1886224N16082 1886 23 NI BB NOT_NAMED 1886-08-17 12:00:00 TS 19.4540 86.1102 main 44 44 _________OP___ -1 19.5000 86.1000 TC 45 19.4081 86.1204 3 2 353
1886224N16082 1886 23 NI BB NOT_NAMED 1886-08-17 15:00:00 TS 19.5500 86.1000 main 33 33 _________PO___ -1 19.6000 86.1000 TC 41 19.5000 86.1000 3 2 0
1886224N16082 1886 23 NI BB NOT_NAMED 1886-08-17 18:00:00 TS 19.6438 86.1242 main 33 22 _________OP___ -1 19.7000 86.1000 TC 37 19.5876 86.1484 3 2 17
1886224N16082 1886 23 NI BB NOT_NAMED 1886-08-17 21:00:00 TS 19.7273 86.1597 main 24 11 _________PP___ -1 19.7775 86.1299 TC 33 19.6772 86.1895 3 2 0
1886224N16082 1886 23 NI BB NOT_NAMED 1886-08-18 00:00:00 TS 19.8391 86.1429 main 11 0 _________OP___ -1 19.9000 86.1000 TC 30 19.7781 86.1858 3 3 338
1886224N16082 1886 23 NI BB NOT_NAMED 1886-08-18 03:00:00 TS 20.0250 86.0300 main 0 0 _________PO___ -1 20.1499 85.9601 TC 30 19.9000 86.1000 1 5 320
1886224N16082 1886 23 NI BB NOT_NAMED 1886-08-18 06:00:00 TS 20.2309 85.7974 main 0 0 _________OP___ -1 20.4000 85.7000 TC 30 20.0617 85.8947 1 6 304
1886224N16082 1886 23 NI BB NOT_NAMED 1886-08-18 09:00:00 TS 20.3789 85.4639 main 0 0 _________PP___ -1 20.5151 85.3223 TC 30 20.2427 85.6055 1 7 293
1886224N16082 1886 23 NI BB NOT_NAMED 1886-08-18 12:00:00 TS 20.5137 85.0817 main 0 0 _________OP___ -1 20.6000 84.9000 TC 30 20.4273 85.2634 1 8 293
1886224N16082 1886 23 NI BB NOT_NAMED 1886-08-18 15:00:00 TS 20.6749 84.7213 main 0 0 _________PO___ -1 20.7499 84.5425 TC 30 20.6000 84.9000 1 7 295
1886224N16082 1886 23 NI BB NOT_NAMED 1886-08-18 18:00:00 TS 20.8258 84.3761 main 0 0 _________OP___ -1 20.9000 84.2000 TC 30 20.7516 84.5522 1 7 293
1886224N16082 1886 23 NI BB NOT_NAMED 1886-08-18 21:00:00 TS 20.9513 84.0138 main 0 0 _________PP___ -1 21.0150 83.8350 TC 30 20.8876 84.1926 1 7 289
1886224N16082 1886 23 NI BB NOT_NAMED 1886-08-19 00:00:00 TS 21.0524 83.6683 main 0 0 _________OP___ -1 21.1000 83.5000 TC 30 21.0048 83.8366 1 6 286
1886224N16082 1886 23 NI BB NOT_NAMED 1886-08-19 03:00:00 TS 21.1287 83.3712 main 0 0 _________PO___ -1 21.1574 83.2424 TC 30 21.1000 83.5000 1 5 284
1886224N16082 1886 23 NI BB NOT_NAMED 1886-08-19 06:00:00 TS 21.1816 83.1015 main 0 0 _________OP___ -1 21.2000 83.0000 TC 30 21.1631 83.2030 1 5 281
1886224N16082 1886 23 NI BB NOT_NAMED 1886-08-19 09:00:00 TS 21.2248 82.8172 main 0 0 _________PP___ -1 21.2425 82.7074 TC 30 21.2071 82.9269 1 5 280
1886224N16082 1886 23 NI BB NOT_NAMED 1886-08-19 12:00:00 TS 21.2738 82.5312 main 0 0 _________OP___ -1 21.3000 82.4000 TC 30 21.2475 82.6624 1 5 283
1886224N16082 1886 23 NI BB NOT_NAMED 1886-08-19 15:00:00 TS 21.3462 82.2463 main 0 0 _________PO___ -1 21.3925 82.0925 TC 30 21.3000 82.4000 1 5 286
1886224N16082 1886 23 NI BB NOT_NAMED 1886-08-19 18:00:00 TS 21.4263 81.9763 main 0 0 _________OP___ -1 21.5000 81.8000 TC 30 21.3526 82.1527 1 5 288
1886224N16082 1886 23 NI BB NOT_NAMED 1886-08-19 21:00:00 TS 21.4970 81.7367 main 0 0 _________PP___ -1 21.5698 81.5721 TC 30 21.4242 81.9012 1 5 292
1886224N16082 1886 23 NI BB NOT_NAMED 1886-08-20 00:00:00 TS 21.6169 81.4621 main 0 0 _________OP___ -1 21.7000 81.3000 TC 30 21.5337 81.6242 1 7 299
1886224N16082 1886 23 NI BB NOT_NAMED 1886-08-20 03:00:00 TS 21.8350 81.0901 main 0 0 _________PO___ -1 21.9701 80.8802 TC 30 21.7000 81.3000 1 9 303
1886224N16082 1886 23 NI BB NOT_NAMED 1886-08-20 06:00:00 TS 22.1153 80.6483 main 0 0 _________OP___ -1 22.3000 80.4000 TC 30 21.9306 80.8965 1 10 305
1886224N16082 1886 23 NI BB NOT_NAMED 1886-08-20 09:00:00 TS 22.4051 80.1975 main 0 0 _________PP___ -1 22.5924 79.9497 TC 30 22.2179 80.4453 1 10 306
1886224N16082 1886 23 NI BB NOT_NAMED 1886-08-20 12:00:00 TS 22.7231 79.7356 main 0 0 _________OP___ -1 22.9000 79.5000 TC 30 22.5462 79.9713 1 11 308
1886224N16082 1886 23 NI BB NOT_NAMED 1886-08-20 15:00:00 TS 23.0675 79.2712 main 0 0 _________PO___ -1 23.2349 79.0423 TC 30 22.9000 79.5000 1 11 310
1886224N16082 1886 23 NI BB NOT_NAMED 1886-08-20 18:00:00 TS 23.4093 78.8580 main 0 0 _________OP___ -1 23.6000 78.6000 TC 30 23.2663 79.0516 1 10 313
1886224N16082 1886 23 NI BB NOT_NAMED 1886-08-20 21:00:00 TS 23.7812 78.4505 main 0 0 _________PP___ -1 23.9927 78.1905 TC 30 23.6403 78.6239 1 10 316
1886224N16082 1886 23 NI BB NOT_NAMED 1886-08-21 00:00:00 TS 24.1461 78.0729 main 0 0 _________OP___ -1 24.4000 77.8000 TC 30 24.0192 78.2093 1 9 316
1886224N16082 1886 23 NI AS NOT_NAMED 1886-08-21 03:00:00 NR 24.4000 77.8000 main 0 __________O___ -1 TC 24.4000 77.8000 1 7 316

IBTrACS Databaseについて

本データベースは、米国NOAAが公開する1842年以降の世界の熱帯低気圧のベストトラックデータアーカイブInternational Best Track Archive for Climate Stewardship (IBTrACS)を、ウェブで閲覧しやすい形式に変換したものです。

最終更新日:2021-11-26